Time,TemperatureF,DewpointF,PressureIn,WindDirection,WindDirectionDegrees,WindSpeedMPH,WindSpeedGustMPH,Humidity,HourlyPrecipIn,Conditions,Clouds,dailyrainin,SoftwareType,DateUTC
2013-03-07 00:00:00,46.0,37.5,30.19,North,11,0.0,6.0,72,0.00,,,0.00,Wunderground v.1.15,2013-03-07 05:00:00,
2013-03-07 00:05:00,45.8,37.3,30.19,NE,34,0.0,6.0,72,0.00,,,0.00,Wunderground v.1.15,2013-03-07 05:05:00,
2013-03-07 00:10:00,45.6,37.1,30.19,WNW,293,0.0,6.0,72,0.00,,,0.00,Wunderground v.1.15,2013-03-07 05:10:00,
2013-03-07 00:15:00,45.5,37.0,30.19,NW,305,0.0,6.0,72,0.00,,,0.00,Wunderground v.1.15,2013-03-07 05:15:00,
2013-03-07 00:20:00,45.2,36.7,30.20,NNE,14,0.0,6.0,72,0.00,,,0.00,Wunderground v.1.15,2013-03-07 05:20:00,
2013-03-07 00:25:00,45.0,36.5,30.19,NNE,14,0.0,6.0,72,0.00,,,0.00,Wunderground v.1.15,2013-03-07 05:25:00,
2013-03-07 00:30:00,44.7,36.2,30.20,WNW,287,0.0,6.0,72,0.00,,,0.00,Wunderground v.1.15,2013-03-07 05:30:00,
2013-03-07 00:35:00,44.5,36.0,30.20,WNW,287,0.0,6.0,72,0.00,,,0.00,Wunderground v.1.15,2013-03-07 05:35:00,
2013-03-07 00:40:00,44.2,35.7,30.20,WNW,287,0.0,6.0,72,0.00,,,0.00,Wunderground v.1.15,2013-03-07 05:40:00,
2013-03-07 00:50:00,43.6,35.5,30.20,WNW,288,0.0,6.0,73,0.00,,,0.00,Wunderground v.1.15,2013-03-07 05:50:00,
2013-03-07 00:55:00,43.3,35.2,30.19,WNW,288,0.0,6.0,73,0.00,,,0.00,Wunderground v.1.15,2013-03-07 05:55:00,
2013-03-07 01:05:00,42.5,34.8,30.19,WNW,288,0.0,6.0,74,0.00,,,0.00,Wunderground v.1.15,2013-03-07 06:05:00,
2013-03-07 01:15:00,41.7,34.4,30.20,WNW,288,0.0,0.0,75,0.00,,,0.00,Wunderground v.1.15,2013-03-07 06:15:00,
2013-03-07 01:20:00,41.3,34.0,30.20,WNW,288,0.0,0.0,75,0.00,,,0.00,Wunderground v.1.15,2013-03-07 06:20:00,
2013-03-07 01:25:00,40.9,33.9,30.20,WNW,288,0.0,0.0,76,0.00,,,0.00,Wunderground v.1.15,2013-03-07 06:25:00,
2013-03-07 01:30:00,40.4,33.8,30.20,WNW,288,0.0,0.0,77,0.00,,,0.00,Wunderground v.1.15,2013-03-07 06:30:00,
2013-03-07 01:35:00,39.8,33.2,30.20,WNW,288,0.0,0.0,77,0.00,,,0.00,Wunderground v.1.15,2013-03-07 06:35:00,
2013-03-07 01:40:00,39.3,32.7,30.20,WNW,288,0.0,0.0,77,0.00,,,0.00,Wunderground v.1.15,2013-03-07 06:40:00,
2013-03-07 01:50:00,38.2,31.9,30.19,WNW,288,0.0,0.0,78,0.00,,,0.00,Wunderground v.1.15,2013-03-07 06:50:00,
2013-03-07 02:00:00,37.1,30.9,30.19,WNW,288,0.0,0.0,78,0.00,,,0.00,Wunderground v.1.15,2013-03-07 07:00:00,
2013-03-07 02:05:00,36.5,30.6,30.19,WNW,288,0.0,0.0,79,0.00,,,0.00,Wunderground v.1.15,2013-03-07 07:05:00,
2013-03-07 02:10:00,36.0,30.1,30.19,WNW,288,0.0,0.0,79,0.00,,,0.00,Wunderground v.1.15,2013-03-07 07:10:00,
2013-03-07 02:15:00,35.5,29.6,30.19,WNW,288,0.0,0.0,79,0.00,,,0.00,Wunderground v.1.15,2013-03-07 07:15:00,
2013-03-07 02:20:00,35.1,29.2,30.19,WNW,288,0.0,0.0,79,0.00,,,0.00,Wunderground v.1.15,2013-03-07 07:20:00,
2013-03-07 02:25:00,34.6,29.1,30.19,WNW,288,0.0,0.0,80,0.00,,,0.00,Wunderground v.1.15,2013-03-07 07:25:00,
2013-03-07 02:30:00,34.2,28.7,30.19,WNW,288,0.0,0.0,80,0.00,,,0.00,Wunderground v.1.15,2013-03-07 07:30:00,
2013-03-07 02:40:00,33.9,28.1,30.19,WNW,288,0.0,0.0,79,0.00,,,0.00,Wunderground v.1.15,2013-03-07 07:40:00,
2013-03-07 02:45:00,34.4,28.2,30.19,WNW,288,0.0,0.0,78,0.00,,,0.00,Wunderground v.1.15,2013-03-07 07:45:00,
2013-03-07 02:54:00,35.7,28.9,30.19,WNW,293,0.0,0.0,76,0.13,,,0.02,Wunderground v.1.15,2013-03-07 07:54:00,
2013-03-07 03:00:00,36.7,29.5,30.19,WNW,302,0.0,0.0,75,0.19,,,0.03,Wunderground v.1.15,2013-03-07 08:00:00,
2013-03-07 03:10:00,38.2,30.6,30.19,WNW,298,0.0,0.0,74,0.25,,,0.06,Wunderground v.1.15,2013-03-07 08:10:00,
2013-03-07 03:15:00,38.6,31.0,30.19,WNW,284,0.0,0.0,74,0.15,,,0.08,Wunderground v.1.15,2013-03-07 08:15:00,
2013-03-07 03:25:00,39.0,31.7,30.19,WNW,294,0.0,0.0,75,0.25,,,0.11,Wunderground v.1.15,2013-03-07 08:25:00,
2013-03-07 03:30:00,39.1,31.8,30.18,WNW,292,0.0,0.0,75,0.25,,,0.13,Wunderground v.1.15,2013-03-07 08:30:00,
2013-03-07 03:35:00,39.0,31.7,30.18,WNW,294,0.0,0.0,75,0.15,,,0.14,Wunderground v.1.15,2013-03-07 08:35:00,
2013-03-07 03:45:00,39.0,32.1,30.18,NW,321,0.0,0.0,76,0.24,,,0.17,Wunderground v.1.15,2013-03-07 08:45:00,
2013-03-07 03:50:00,39.1,32.2,30.18,ENE,78,0.0,1.0,76,0.23,,,0.19,Wunderground v.1.15,2013-03-07 08:50:00,
2013-03-07 03:55:00,39.2,32.3,30.18,WNW,303,0.0,1.0,76,0.14,,,0.20,Wunderground v.1.15,2013-03-07 08:55:00,
2013-03-07 04:00:00,39.2,32.3,30.18,WNW,302,0.0,0.0,76,0.15,,,0.21,Wunderground v.1.15,2013-03-07 09:00:00,
2013-03-07 04:05:00,39.2,32.3,30.19,NW,309,0.0,0.0,76,0.23,,,0.23,Wunderground v.1.15,2013-03-07 09:05:00,
2013-03-07 04:10:00,39.2,32.6,30.19,NNW,330,0.0,0.0,77,0.24,,,0.25,Wunderground v.1.15,2013-03-07 09:10:00,
2013-03-07 04:20:00,39.1,32.5,30.19,West,280,0.0,0.0,77,0.16,,,0.27,Wunderground v.1.15,2013-03-07 09:20:00,
2013-03-07 04:30:00,39.3,32.7,30.19,WNW,290,0.0,0.0,77,0.24,,,0.31,Wunderground v.1.15,2013-03-07 09:30:00,
2013-03-07 04:35:00,39.4,32.8,30.20,NNW,331,0.0,0.0,77,0.14,,,0.32,Wunderground v.1.15,2013-03-07 09:35:00,
2013-03-07 04:40:00,39.4,32.8,30.20,NNW,348,0.0,0.0,77,0.18,,,0.33,Wunderground v.1.15,2013-03-07 09:40:00,
2013-03-07 04:45:00,39.3,32.7,30.20,WNW,283,0.0,0.0,77,0.26,,,0.35,Wunderground v.1.15,2013-03-07 09:45:00,
2013-03-07 04:55:00,39.3,33.0,30.20,NNW,347,0.0,0.0,78,0.14,,,0.37,Wunderground v.1.15,2013-03-07 09:55:00,
2013-03-07 05:00:00,39.2,32.9,30.20,North,5,0.0,0.0,78,0.22,,,0.39,Wunderground v.1.15,2013-03-07 10:00:00,
2013-03-07 05:10:00,39.3,33.0,30.20,NE,55,0.0,0.0,78,0.13,,,0.42,Wunderground v.1.15,2013-03-07 10:10:00,
2013-03-07 05:15:00,39.3,33.0,30.21,East,92,0.0,0.0,78,0.18,,,0.43,Wunderground v.1.15,2013-03-07 10:15:00,
2013-03-07 05:20:00,39.2,32.9,30.21,NE,56,0.0,0.0,78,0.21,,,0.44,Wunderground v.1.15,2013-03-07 10:20:00,
2013-03-07 05:30:00,38.8,32.5,30.21,NE,40,0.0,0.0,78,0.18,,,0.47,Wunderground v.1.15,2013-03-07 10:30:00,
2013-03-07 05:35:00,38.6,32.3,30.21,NNW,335,0.0,0.0,78,0.25,,,0.49,Wunderground v.1.15,2013-03-07 10:35:00,
2013-03-07 05:40:00,38.5,32.2,30.22,North,355,0.0,0.0,78,0.24,,,0.50,Wunderground v.1.15,2013-03-07 10:40:00,
2013-03-07 05:45:00,38.3,32.0,30.22,NNW,338,0.0,0.0,78,0.14,,,0.52,Wunderground v.1.15,2013-03-07 10:45:00,
2013-03-07 05:55:00,38.0,31.4,30.22,NW,313,0.0,0.0,77,0.23,,,0.55,Wunderground v.1.15,2013-03-07 10:55:00,
2013-03-07 06:00:00,37.9,31.3,30.23,WNW,290,0.0,0.0,77,0.24,,,0.56,Wunderground v.1.15,2013-03-07 11:00:00,
2013-03-07 06:05:00,37.8,31.2,30.23,WNW,285,0.0,0.0,77,0.14,,,0.58,Wunderground v.1.15,2013-03-07 11:05:00,
2013-03-07 06:10:00,37.7,31.1,30.23,NNW,332,0.0,0.0,77,0.17,,,0.59,Wunderground v.1.15,2013-03-07 11:10:00,
2013-03-07 06:15:00,37.6,31.0,30.23,NW,321,0.0,0.0,77,0.24,,,0.61,Wunderground v.1.15,2013-03-07 11:15:00,
2013-03-07 06:20:00,37.5,30.9,30.23,NW,321,0.0,0.0,77,0.14,,,0.62,Wunderground v.1.15,2013-03-07 11:20:00,
2013-03-07 06:30:00,37.3,30.7,30.23,NNW,341,0.0,0.0,77,0.23,,,0.65,Wunderground v.1.15,2013-03-07 11:30:00,
2013-03-07 06:39:00,37.1,30.6,30.24,WNW,302,0.0,0.0,77,0.14,,,0.68,Wunderground v.1.15,2013-03-07 11:39:00,
2013-03-07 06:45:00,36.9,30.4,30.24,WNW,302,0.0,0.0,77,0.15,,,0.69,Wunderground v.1.15,2013-03-07 11:45:00,
2013-03-07 06:50:00,36.9,30.4,30.24,WNW,302,0.0,0.0,77,0.22,,,0.71,Wunderground v.1.15,2013-03-07 11:50:00,
2013-03-07 06:55:00,36.8,30.3,30.24,WNW,298,0.0,0.0,77,0.23,,,0.73,Wunderground v.1.15,2013-03-07 11:55:00,
2013-03-07 07:05:00,36.7,29.8,30.24,NW,307,0.0,0.0,76,0.17,,,0.75,Wunderground v.1.15,2013-03-07 12:05:00,
2013-03-07 07:10:00,36.8,29.9,30.25,WNW,301,0.0,0.0,76,0.24,,,0.77,Wunderground v.1.15,2013-03-07 12:10:00,
2013-03-07 07:15:00,36.9,30.0,30.25,WNW,295,0.0,0.0,76,0.14,,,0.78,Wunderground v.1.15,2013-03-07 12:15:00,
2013-03-07 07:20:00,37.1,30.2,30.25,WNW,295,0.0,0.0,76,0.14,,,0.79,Wunderground v.1.15,2013-03-07 12:20:00,
2013-03-07 07:25:00,37.3,30.4,30.25,NNW,340,0.0,0.0,76,0.20,,,0.81,Wunderground v.1.15,2013-03-07 12:25:00,
2013-03-07 07:35:00,37.9,30.7,30.26,NNW,340,0.0,0.0,75,0.15,,,0.83,Wunderground v.1.15,2013-03-07 12:35:00,
2013-03-07 07:40:00,38.4,31.2,30.26,North,5,0.0,0.0,75,0.12,,,0.84,Wunderground v.1.15,2013-03-07 12:40:00,
2013-03-07 07:45:00,38.8,31.9,30.26,ENE,75,0.0,0.0,76,0.06,,,0.84,Wunderground v.1.15,2013-03-07 12:45:00,
2013-03-07 07:50:00,39.1,32.2,30.27,NW,304,0.0,0.0,76,0.04,,,0.85,Wunderground v.1.15,2013-03-07 12:50:00,
2013-03-07 07:55:00,39.6,32.7,30.26,NW,317,0.0,0.0,76,0.04,,,0.85,Wunderground v.1.15,2013-03-07 12:55:00,
2013-03-07 08:05:00,40.8,34.5,30.27,NNW,340,1.0,1.0,78,0.04,,,0.85,Wunderground v.1.15,2013-03-07 13:05:00,
2013-03-07 08:10:00,41.6,35.2,30.27,NE,55,1.0,1.0,78,0.00,,,0.85,Wunderground v.1.15,2013-03-07 13:10:00,
2013-03-07 08:15:00,42.4,36.0,30.27,NNW,346,1.0,4.0,78,0.00,,,0.85,Wunderground v.1.15,2013-03-07 13:15:00,
2013-03-07 08:25:00,43.7,36.6,30.26,NE,46,2.0,2.0,76,0.00,,,0.85,Wunderground v.1.15,2013-03-07 13:25:00,
2013-03-07 08:30:00,44.2,36.4,30.27,NW,304,2.0,2.0,74,0.00,,,0.85,Wunderground v.1.15,2013-03-07 13:30:00,
2013-03-07 08:35:00,44.5,36.4,30.27,NNE,12,2.0,3.0,73,0.00,,,0.85,Wunderground v.1.15,2013-03-07 13:35:00,
2013-03-07 08:40:00,45.0,36.5,30.27,NE,42,2.0,2.0,72,0.00,,,0.85,Wunderground v.1.15,2013-03-07 13:40:00,
2013-03-07 08:50:00,45.7,36.8,30.27,NW,304,3.0,3.0,71,0.00,,,0.85,Wunderground v.1.15,2013-03-07 13:50:00,
2013-03-07 09:00:00,46.5,37.6,30.27,NW,319,2.0,2.0,71,0.00,,,0.85,Wunderground v.1.15,2013-03-07 14:00:00,
2013-03-07 09:05:00,47.0,37.4,30.27,ENE,72,2.0,2.0,69,0.00,,,0.85,Wunderground v.1.15,2013-03-07 14:05:00,
2013-03-07 09:10:00,47.7,37.7,30.27,NW,310,2.0,2.0,68,0.00,,,0.85,Wunderground v.1.15,2013-03-07 14:10:00,
2013-03-07 09:15:00,48.1,37.3,30.27,NE,36,2.0,2.0,66,0.00,,,0.85,Wunderground v.1.15,2013-03-07 14:15:00,
2013-03-07 09:20:00,48.3,36.7,30.28,NE,46,2.0,2.0,64,0.00,,,0.85,Wunderground v.1.15,2013-03-07 14:20:00,
2013-03-07 09:30:00,49.1,37.4,30.27,NE,50,3.0,5.0,64,0.00,,,0.85,Wunderground v.1.15,2013-03-07 14:30:00,
2013-03-07 09:35:00,49.4,38.1,30.27,East,86,2.0,5.0,65,0.00,,,0.85,Wunderground v.1.15,2013-03-07 14:35:00,
2013-03-07 09:45:00,50.2,38.5,30.28,NE,36,1.0,5.0,64,0.00,,,0.85,Wunderground v.1.15,2013-03-07 14:45:00,
2013-03-07 09:50:00,50.3,39.0,30.28,NNE,16,2.0,2.0,65,0.00,,,0.85,Wunderground v.1.15,2013-03-07 14:50:00,
2013-03-07 09:55:00,50.8,39.1,30.28,NNE,30,2.0,2.0,64,0.00,,,0.85,Wunderground v.1.15,2013-03-07 14:55:00,
2013-03-07 10:05:00,51.4,40.0,30.28,North,355,2.0,2.0,65,0.00,,,0.85,Wunderground v.1.15,2013-03-07 15:05:00,
2013-03-07 10:10:00,51.6,39.4,30.28,NW,322,2.0,2.0,63,0.00,,,0.85,Wunderground v.1.15,2013-03-07 15:10:00,
2013-03-07 10:15:00,52.0,39.8,30.29,NE,53,2.0,2.0,63,0.00,,,0.85,Wunderground v.1.15,2013-03-07 15:15:00,
2013-03-07 10:20:00,52.6,39.9,30.29,NNE,15,2.0,2.0,62,0.00,,,0.85,Wunderground v.1.15,2013-03-07 15:20:00,
2013-03-07 10:25:00,52.6,39.5,30.29,North,350,2.0,2.0,61,0.00,,,0.85,Wunderground v.1.15,2013-03-07 15:25:00,
2013-03-07 10:30:00,53.0,41.5,30.29,NE,44,2.0,2.0,65,0.00,,,0.85,Wunderground v.1.15,2013-03-07 15:30:00,
2013-03-07 10:40:00,53.6,40.5,30.29,WNW,295,3.0,3.0,61,0.00,,,0.85,Wunderground v.1.15,2013-03-07 15:40:00,
2013-03-07 10:50:00,54.3,40.7,30.29,NE,51,2.0,2.0,60,0.00,,,0.85,Wunderground v.1.15,2013-03-07 15:50:00,
2013-03-07 10:55:00,54.7,41.1,30.29,West,276,2.0,3.0,60,0.00,,,0.85,Wunderground v.1.15,2013-03-07 15:55:00,
2013-03-07 11:05:00,55.4,40.9,30.28,East,101,2.0,5.0,58,0.00,,,0.85,Wunderground v.1.15,2013-03-07 16:05:00,
2013-03-07 11:15:00,55.8,41.2,30.28,ENE,76,1.0,2.0,58,0.00,,,0.85,Wunderground v.1.15,2013-03-07 16:15:00,
2013-03-07 11:20:00,56.3,42.1,30.28,ESE,123,1.0,1.0,59,0.00,,,0.85,Wunderground v.1.15,2013-03-07 16:20:00,
2013-03-07 11:25:00,57.1,42.0,30.28,North,5,1.0,1.0,57,0.00,,,0.85,Wunderground v.1.15,2013-03-07 16:25:00,
2013-03-07 11:30:00,57.5,42.4,30.28,NNE,29,1.0,1.0,57,0.00,,,0.85,Wunderground v.1.15,2013-03-07 16:30:00,
2013-03-07 11:35:00,57.6,41.1,30.28,North,9,1.0,3.0,54,0.00,,,0.85,Wunderground v.1.15,2013-03-07 16:35:00,
2013-03-07 11:40:00,57.8,42.2,30.27,NNW,342,1.0,1.0,56,0.00,,,0.85,Wunderground v.1.15,2013-03-07 16:40:00,
2013-03-07 11:50:00,58.4,41.3,30.28,NNE,13,2.0,2.0,53,0.00,,,0.85,Wunderground v.1.15,2013-03-07 16:50:00,
2013-03-07 11:55:00,58.7,43.0,30.27,NW,320,2.0,2.0,56,0.00,,,0.85,Wunderground v.1.15,2013-03-07 16:55:00,
2013-03-07 12:00:00,59.0,41.9,30.27,NE,53,2.0,2.0,53,0.00,,,0.85,Wunderground v.1.15,2013-03-07 17:00:00,
2013-03-07 12:05:00,59.5,42.8,30.27,NW,304,1.0,2.0,54,0.00,,,0.85,Wunderground v.1.15,2013-03-07 17:05:00,
2013-03-07 12:10:00,60.0,42.8,30.27,East,80,1.0,1.0,53,0.00,,,0.85,Wunderground v.1.15,2013-03-07 17:10:00,
2013-03-07 12:20:00,61.2,42.9,30.26,North,9,1.0,3.0,51,0.00,,,0.85,Wunderground v.1.15,2013-03-07 17:20:00,
2013-03-07 12:30:00,61.2,41.9,30.25,NW,304,1.0,1.0,49,0.00,,,0.85,Wunderground v.1.15,2013-03-07 17:30:00,
2013-03-07 12:35:00,61.7,42.9,30.24,NNE,13,0.0,8.0,50,0.00,,,0.85,Wunderground v.1.15,2013-03-07 17:35:00,
2013-03-07 12:40:00,61.7,42.3,30.24,East,86,1.0,1.0,49,0.00,,,0.85,Wunderground v.1.15,2013-03-07 17:40:00,
2013-03-07 12:45:00,61.8,42.4,30.24,NW,311,1.0,3.0,49,0.00,,,0.85,Wunderground v.1.15,2013-03-07 17:45:00,
2013-03-07 12:50:00,62.2,41.7,30.24,NNE,29,1.0,1.0,47,0.00,,,0.85,Wunderground v.1.15,2013-03-07 17:50:00,
2013-03-07 13:00:00,62.5,41.4,30.25,WSW,256,2.0,3.0,46,0.00,,,0.85,Wunderground v.1.15,2013-03-07 18:00:00,
2013-03-07 13:05:00,62.5,42.0,30.25,NW,313,4.0,4.0,47,0.00,,,0.85,Wunderground v.1.15,2013-03-07 18:05:00,
2013-03-07 13:15:00,63.1,42.0,30.24,NE,40,1.0,3.0,46,0.00,,,0.85,Wunderground v.1.15,2013-03-07 18:15:00,
2013-03-07 13:20:00,63.7,42.5,30.24,WNW,291,1.0,1.0,46,0.00,,,0.85,Wunderground v.1.15,2013-03-07 18:20:00,
2013-03-07 13:25:00,64.0,42.2,30.23,SW,221,1.0,1.0,45,0.00,,,0.85,Wunderground v.1.15,2013-03-07 18:25:00,
2013-03-07 13:30:00,64.3,41.9,30.23,West,280,0.0,5.0,44,0.00,,,0.85,Wunderground v.1.15,2013-03-07 18:30:00,
2013-03-07 13:35:00,64.7,42.3,30.22,NW,309,1.0,5.0,44,0.00,,,0.85,Wunderground v.1.15,2013-03-07 18:35:00,
2013-03-07 13:40:00,64.5,42.1,30.22,SSW,198,2.0,2.0,44,0.00,,,0.85,Wunderground v.1.15,2013-03-07 18:40:00,
2013-03-07 13:45:00,65.1,44.4,30.22,WNW,298,1.0,4.0,47,0.00,,,0.85,Wunderground v.1.15,2013-03-07 18:45:00,
2013-03-07 13:50:00,65.5,43.0,30.22,ESE,119,0.0,0.0,44,0.00,,,0.85,Wunderground v.1.15,2013-03-07 18:50:00,
2013-03-07 13:55:00,65.8,42.7,30.22,NE,38,1.0,5.0,43,0.00,,,0.85,Wunderground v.1.15,2013-03-07 18:55:00,
2013-03-07 14:05:00,66.0,43.5,30.22,West,276,1.0,4.0,44,0.00,,,0.85,Wunderground v.1.15,2013-03-07 19:05:00,
2013-03-07 14:10:00,66.1,42.3,30.22,WNW,295,2.0,2.0,42,0.00,,,0.85,Wunderground v.1.15,2013-03-07 19:10:00,
2013-03-07 14:15:00,66.3,45.5,30.22,West,274,2.0,2.0,47,0.00,,,0.85,Wunderground v.1.15,2013-03-07 19:15:00,
2013-03-07 14:20:00,66.3,43.1,30.22,ENE,71,0.0,0.0,43,0.00,,,0.85,Wunderground v.1.15,2013-03-07 19:20:00,
2013-03-07 14:25:00,66.8,43.0,30.22,WNW,301,0.0,0.0,42,0.00,,,0.85,Wunderground v.1.15,2013-03-07 19:25:00,
2013-03-07 14:30:00,67.0,43.1,30.21,WSW,245,0.0,0.0,42,0.00,,,0.85,Wunderground v.1.15,2013-03-07 19:30:00,
2013-03-07 14:40:00,67.5,43.0,30.20,North,5,0.0,0.0,41,0.00,,,0.85,Wunderground v.1.15,2013-03-07 19:40:00,
2013-03-07 14:45:00,67.8,42.6,30.20,East,90,0.0,0.0,40,0.00,,,0.85,Wunderground v.1.15,2013-03-07 19:45:00,
2013-03-07 14:50:00,68.4,43.1,30.20,North,355,0.0,5.0,40,0.00,,,0.85,Wunderground v.1.15,2013-03-07 19:50:00,
2013-03-07 14:55:00,68.6,42.0,30.20,NW,316,1.0,5.0,38,0.00,,,0.85,Wunderground v.1.15,2013-03-07 19:55:00,
2013-03-07 15:00:00,68.6,43.9,30.19,ENE,75,1.0,1.0,41,0.00,,,0.85,Wunderground v.1.15,2013-03-07 20:00:00,
2013-03-07 15:05:00,69.1,43.1,30.19,West,261,0.0,1.0,39,0.00,,,0.85,Wunderground v.1.15,2013-03-07 20:05:00,
2013-03-07 15:10:00,69.5,42.1,30.19,NNW,344,0.0,0.0,37,0.00,,,0.85,Wunderground v.1.15,2013-03-07 20:10:00,
2013-03-07 15:15:00,69.5,42.8,30.19,SSW,211,0.0,0.0,38,0.00,,,0.85,Wunderground v.1.15,2013-03-07 20:15:00,
2013-03-07 15:20:00,69.9,45.1,30.19,West,272,0.0,1.0,41,0.00,,,0.85,Wunderground v.1.15,2013-03-07 20:20:00,
2013-03-07 15:25:00,69.8,43.0,30.19,SE,127,0.0,1.0,38,0.00,,,0.85,Wunderground v.1.15,2013-03-07 20:25:00,
2013-03-07 15:30:00,69.8,43.0,30.19,East,82,0.0,0.0,38,0.00,,,0.85,Wunderground v.1.15,2013-03-07 20:30:00,
2013-03-07 15:35:00,69.5,41.4,30.19,NE,45,1.0,4.0,36,0.00,,,0.85,Wunderground v.1.15,2013-03-07 20:35:00,
2013-03-07 15:45:00,68.9,41.5,30.19,NNE,18,1.0,1.0,37,0.00,,,0.85,Wunderground v.1.15,2013-03-07 20:45:00,
2013-03-07 15:55:00,69.5,41.4,30.19,East,82,0.0,0.0,36,0.00,,,0.85,Wunderground v.1.15,2013-03-07 20:55:00,
2013-03-07 16:00:00,69.6,41.5,30.20,NE,36,0.0,2.0,36,0.00,,,0.85,Wunderground v.1.15,2013-03-07 21:00:00,
2013-03-07 16:05:00,69.4,42.7,30.20,ENE,78,0.0,2.0,38,0.00,,,0.85,Wunderground v.1.15,2013-03-07 21:05:00,
2013-03-07 16:10:00,69.4,40.5,30.19,NNW,343,0.0,0.0,35,0.00,,,0.85,Wunderground v.1.15,2013-03-07 21:10:00,
2013-03-07 16:15:00,69.6,41.5,30.19,NW,315,0.0,0.0,36,0.00,,,0.85,Wunderground v.1.15,2013-03-07 21:15:00,
2013-03-07 16:25:00,70.5,42.2,30.20,SW,234,0.0,0.0,36,0.00,,,0.85,Wunderground v.1.15,2013-03-07 21:25:00,
2013-03-07 16:35:00,70.7,41.7,30.19,West,265,0.0,0.0,35,0.00,,,0.85,Wunderground v.1.15,2013-03-07 21:35:00,
2013-03-07 16:40:00,70.6,41.6,30.19,NNW,338,0.0,0.0,35,0.00,,,0.85,Wunderground v.1.15,2013-03-07 21:40:00,
2013-03-07 16:45:00,70.8,42.5,30.19,NW,315,0.0,0.0,36,0.00,,,0.85,Wunderground v.1.15,2013-03-07 21:45:00,
2013-03-07 16:50:00,71.0,43.4,30.19,NW,309,0.0,0.0,37,0.00,,,0.85,Wunderground v.1.15,2013-03-07 21:50:00,
2013-03-07 17:00:00,70.7,40.9,30.18,NNE,20,0.0,0.0,34,0.00,,,0.85,Wunderground v.1.15,2013-03-07 22:00:00,
2013-03-07 17:10:00,71.4,43.0,30.19,SW,220,0.0,0.0,36,0.00,,,0.85,Wunderground v.1.15,2013-03-07 22:10:00,
2013-03-07 17:15:00,71.4,41.6,30.18,East,100,0.0,2.0,34,0.00,,,0.85,Wunderground v.1.15,2013-03-07 22:15:00,
2013-03-07 17:20:00,70.6,42.3,30.19,NW,323,1.0,1.0,36,0.00,,,0.85,Wunderground v.1.15,2013-03-07 22:20:00,
2013-03-07 17:25:00,70.5,41.5,30.19,WNW,300,1.0,1.0,35,0.00,,,0.85,Wunderground v.1.15,2013-03-07 22:25:00,
2013-03-07 17:30:00,70.8,43.2,30.19,WNW,292,0.0,0.0,37,0.00,,,0.85,Wunderground v.1.15,2013-03-07 22:30:00,
2013-03-07 17:35:00,70.9,42.6,30.19,North,355,0.0,0.0,36,0.00,,,0.85,Wunderground v.1.15,2013-03-07 22:35:00,
2013-03-07 17:45:00,69.7,44.3,30.19,ENE,64,0.0,0.0,40,0.00,,,0.85,Wunderground v.1.15,2013-03-07 22:45:00,
2013-03-07 17:50:00,69.1,43.8,30.19,ENE,63,0.0,0.0,40,0.00,,,0.85,Wunderground v.1.15,2013-03-07 22:50:00,
2013-03-07 17:55:00,68.0,40.7,30.19,East,80,0.0,0.0,37,0.00,,,0.85,Wunderground v.1.15,2013-03-07 22:55:00,
2013-03-07 18:05:00,67.0,46.1,30.19,East,80,0.0,0.0,47,0.00,,,0.85,Wunderground v.1.15,2013-03-07 23:05:00,
2013-03-07 18:15:00,64.9,46.8,30.19,East,80,0.0,0.0,52,0.00,,,0.85,Wunderground v.1.15,2013-03-07 23:15:00,
2013-03-07 18:20:00,63.8,46.8,30.19,East,80,0.0,0.0,54,0.00,,,0.85,Wunderground v.1.15,2013-03-07 23:20:00,
2013-03-07 18:25:00,62.8,46.9,30.19,East,80,0.0,0.0,56,0.00,,,0.85,Wunderground v.1.15,2013-03-07 23:25:00,
2013-03-07 18:30:00,61.7,46.8,30.20,East,80,0.0,0.0,58,0.00,,,0.85,Wunderground v.1.15,2013-03-07 23:30:00,
2013-03-07 18:35:00,60.8,47.3,30.20,East,80,0.0,0.0,61,0.00,,,0.85,Wunderground v.1.15,2013-03-07 23:35:00,
2013-03-07 18:45:00,58.9,46.3,30.20,East,80,0.0,0.0,63,0.00,,,0.85,Wunderground v.1.15,2013-03-07 23:45:00,
2013-03-07 18:50:00,57.7,45.2,30.20,East,80,0.0,0.0,63,0.00,,,0.85,Wunderground v.1.15,2013-03-07 23:50:00,
2013-03-07 18:55:00,56.7,45.1,30.20,East,80,0.0,0.0,65,0.00,,,0.85,Wunderground v.1.15,2013-03-07 23:55:00,
2013-03-07 19:00:00,55.5,44.3,30.20,East,80,0.0,0.0,66,0.00,,,0.85,Wunderground v.1.15,2013-03-08 00:00:00,
2013-03-07 19:10:00,53.4,43.5,30.21,East,80,0.0,0.0,69,0.00,,,0.85,Wunderground v.1.15,2013-03-08 00:10:00,
2013-03-07 19:15:00,52.4,42.9,30.22,East,80,0.0,0.0,70,0.00,,,0.85,Wunderground v.1.15,2013-03-08 00:15:00,
2013-03-07 19:20:00,51.6,42.5,30.22,East,80,0.0,0.0,71,0.00,,,0.85,Wunderground v.1.15,2013-03-08 00:20:00,
2013-03-07 19:25:00,50.8,42.1,30.22,East,80,0.0,0.0,72,0.00,,,0.85,Wunderground v.1.15,2013-03-08 00:25:00,
2013-03-07 19:30:00,50.0,41.7,30.22,East,80,0.0,0.0,73,0.00,,,0.85,Wunderground v.1.15,2013-03-08 00:30:00,
2013-03-07 19:35:00,49.2,41.3,30.23,East,80,0.0,0.0,74,0.00,,,0.85,Wunderground v.1.15,2013-03-08 00:35:00,
2013-03-07 19:40:00,48.4,41.2,30.23,WSW,250,0.0,0.0,76,0.00,,,0.85,Wunderground v.1.15,2013-03-08 00:40:00,
2013-03-07 19:50:00,49.0,41.4,30.23,WNW,287,0.0,0.0,75,0.00,,,0.85,Wunderground v.1.15,2013-03-08 00:50:00,
2013-03-07 19:55:00,49.3,41.7,30.23,WNW,288,0.0,0.0,75,0.00,,,0.85,Wunderground v.1.15,2013-03-08 00:55:00,
2013-03-07 20:05:00,49.2,42.0,30.24,WNW,288,0.0,0.0,76,0.00,,,0.85,Wunderground v.1.15,2013-03-08 01:05:00,
2013-03-07 20:10:00,48.8,41.2,30.24,WNW,288,0.0,0.0,75,0.00,,,0.85,Wunderground v.1.15,2013-03-08 01:10:00,
2013-03-07 20:15:00,48.2,41.0,30.24,WNW,288,0.0,0.0,76,0.00,,,0.85,Wunderground v.1.15,2013-03-08 01:15:00,
2013-03-07 20:20:00,47.5,40.3,30.24,WNW,285,0.0,0.0,76,0.00,,,0.85,Wunderground v.1.15,2013-03-08 01:20:00,
2013-03-07 20:25:00,47.3,40.1,30.24,WNW,298,0.0,0.0,76,0.00,,,0.85,Wunderground v.1.15,2013-03-08 01:25:00,
2013-03-07 20:30:00,47.9,40.7,30.25,WNW,295,0.0,0.0,76,0.00,,,0.85,Wunderground v.1.15,2013-03-08 01:30:00,
2013-03-07 20:35:00,48.1,40.9,30.25,NW,307,0.0,0.0,76,0.00,,,0.85,Wunderground v.1.15,2013-03-08 01:35:00,
2013-03-07 20:40:00,48.1,40.9,30.24,NW,307,0.0,0.0,76,0.00,,,0.85,Wunderground v.1.15,2013-03-08 01:40:00,
2013-03-07 20:45:00,48.0,40.8,30.25,NW,308,0.0,0.0,76,0.00,,,0.85,Wunderground v.1.15,2013-03-08 01:45:00,
2013-03-07 20:50:00,47.7,40.5,30.25,NW,308,0.0,0.0,76,0.00,,,0.85,Wunderground v.1.15,2013-03-08 01:50:00,
2013-03-07 20:55:00,47.4,40.2,30.25,WNW,295,0.0,0.0,76,0.00,,,0.85,Wunderground v.1.15,2013-03-08 01:55:00,
2013-03-07 21:05:00,48.5,40.9,30.25,WNW,292,1.0,1.0,75,0.00,,,0.85,Wunderground v.1.15,2013-03-08 02:05:00,
2013-03-07 21:10:00,49.2,41.3,30.25,WNW,284,0.0,0.0,74,0.00,,,0.85,Wunderground v.1.15,2013-03-08 02:10:00,
2013-03-07 21:15:00,49.4,41.5,30.25,NW,307,0.0,0.0,74,0.00,,,0.85,Wunderground v.1.15,2013-03-08 02:15:00,
2013-03-07 21:20:00,49.3,41.4,30.25,West,277,0.0,0.0,74,0.00,,,0.85,Wunderground v.1.15,2013-03-08 02:20:00,
2013-03-07 21:25:00,49.1,41.2,30.26,WNW,293,0.0,0.0,74,0.00,,,0.85,Wunderground v.1.15,2013-03-08 02:25:00,
2013-03-07 21:35:00,49.0,41.1,30.26,WNW,290,0.0,2.0,74,0.00,,,0.85,Wunderground v.1.15,2013-03-08 02:35:00,
2013-03-07 21:40:00,49.0,41.1,30.26,NW,308,0.0,0.0,74,0.00,,,0.85,Wunderground v.1.15,2013-03-08 02:40:00,
2013-03-07 21:50:00,48.6,41.0,30.26,NW,308,0.0,0.0,75,0.00,,,0.85,Wunderground v.1.15,2013-03-08 02:50:00,
2013-03-07 21:55:00,48.3,40.7,30.26,WNW,287,0.0,0.0,75,0.00,,,0.85,Wunderground v.1.15,2013-03-08 02:55:00,
2013-03-07 22:00:00,47.8,40.3,30.26,WNW,288,0.0,0.0,75,0.00,,,0.85,Wunderground v.1.15,2013-03-08 03:00:00,
2013-03-07 22:05:00,47.4,40.2,30.26,WNW,283,0.0,0.0,76,0.00,,,0.85,Wunderground v.1.15,2013-03-08 03:05:00,
2013-03-07 22:10:00,46.9,39.7,30.26,WNW,283,0.0,0.0,76,0.00,,,0.85,Wunderground v.1.15,2013-03-08 03:10:00,
2013-03-07 22:20:00,46.1,39.3,30.26,WNW,283,0.0,0.0,77,0.00,,,0.85,Wunderground v.1.15,2013-03-08 03:20:00,
2013-03-07 22:25:00,45.7,38.9,30.26,WNW,283,0.0,0.0,77,0.00,,,0.85,Wunderground v.1.15,2013-03-08 03:25:00,
2013-03-07 22:30:00,45.2,38.4,30.26,WNW,283,0.0,0.0,77,0.00,,,0.85,Wunderground v.1.15,2013-03-08 03:30:00,
2013-03-07 22:35:00,44.7,37.9,30.26,WNW,283,0.0,0.0,77,0.00,,,0.85,Wunderground v.1.15,2013-03-08 03:35:00,
2013-03-07 22:40:00,44.0,37.3,30.26,NNE,30,0.0,0.0,77,0.00,,,0.85,Wunderground v.1.15,2013-03-08 03:40:00,
2013-03-07 22:45:00,43.1,36.4,30.27,NE,38,0.0,0.0,77,0.00,,,0.85,Wunderground v.1.15,2013-03-08 03:45:00,
2013-03-07 22:50:00,42.7,36.0,30.27,NE,38,0.0,0.0,77,0.00,,,0.85,Wunderground v.1.15,2013-03-08 03:50:00,
2013-03-07 23:00:00,41.9,35.2,30.27,NE,38,0.0,0.0,77,0.00,,,0.85,Wunderground v.1.15,2013-03-08 04:00:00,
2013-03-07 23:05:00,41.7,35.0,30.27,NE,38,0.0,0.0,77,0.00,,,0.85,Wunderground v.1.15,2013-03-08 04:05:00,
2013-03-07 23:15:00,40.9,34.2,30.27,NE,38,0.0,0.0,77,0.00,,,0.85,Wunderground v.1.15,2013-03-08 04:15:00,
2013-03-07 23:25:00,40.1,33.5,30.28,NE,38,0.0,0.0,77,0.00,,,0.85,Wunderground v.1.15,2013-03-08 04:25:00,
2013-03-07 23:30:00,39.7,33.4,30.28,NE,38,0.0,0.0,78,0.00,,,0.85,Wunderground v.1.15,2013-03-08 04:30:00,
2013-03-07 23:35:00,39.3,33.0,30.28,NE,38,0.0,0.0,78,0.00,,,0.85,Wunderground v.1.15,2013-03-08 04:35:00,
2013-03-07 23:40:00,39.0,32.7,30.27,NE,38,0.0,0.0,78,0.00,,,0.85,Wunderground v.1.15,2013-03-08 04:40:00,
2013-03-07 23:50:00,38.3,32.0,30.27,NE,38,0.0,0.0,78,0.00,,,0.85,Wunderground v.1.15,2013-03-08 04:50:00,